createdAt,value
2023-05-23T00:00:55.854Z,0.00
2023-05-23T00:01:55.824Z,0.00
2023-05-23T00:02:56.069Z,0.00
2023-05-23T00:03:55.827Z,0.00
2023-05-23T00:04:55.777Z,0.00
2023-05-23T00:05:55.820Z,0.00
2023-05-23T00:06:55.707Z,0.00
2023-05-23T00:07:55.800Z,0.00
2023-05-23T00:08:55.735Z,0.00
2023-05-23T00:09:55.718Z,0.00
2023-05-23T00:10:55.597Z,0.00
2023-05-23T00:11:55.631Z,0.00
2023-05-23T00:12:55.567Z,0.00
2023-05-23T00:13:55.640Z,0.00
2023-05-23T00:14:55.521Z,0.00
2023-05-23T00:15:55.551Z,0.00
2023-05-23T00:16:55.596Z,0.00
2023-05-23T00:17:55.530Z,0.00
2023-05-23T00:18:55.475Z,0.00
2023-05-23T00:19:55.406Z,0.00
2023-05-23T00:20:55.485Z,0.00
2023-05-23T00:21:55.381Z,0.00
2023-05-23T00:22:55.354Z,0.00
2023-05-23T00:23:55.409Z,0.00
2023-05-23T00:24:55.395Z,0.00
2023-05-23T00:25:55.324Z,0.00
2023-05-23T00:26:55.265Z,0.00
2023-05-23T00:27:55.369Z,0.00
2023-05-23T00:28:55.223Z,0.00
2023-05-23T00:29:55.244Z,0.00
2023-05-23T00:30:55.187Z,0.00
2023-05-23T00:31:55.263Z,0.00
2023-05-23T00:32:55.219Z,0.00
2023-05-23T00:33:55.174Z,0.00
2023-05-23T00:34:55.101Z,0.00
2023-05-23T00:35:55.200Z,0.00
2023-05-23T00:36:55.054Z,0.00
2023-05-23T00:37:55.112Z,0.00
2023-05-23T00:38:55.015Z,0.00
2023-05-23T00:39:55.010Z,0.00
2023-05-23T00:40:54.984Z,0.00
2023-05-23T00:41:55.027Z,0.00
2023-05-23T00:42:54.944Z,0.00
2023-05-23T00:43:55.958Z,0.00
2023-05-23T00:44:54.897Z,0.00
2023-05-23T00:45:54.876Z,0.00
2023-05-23T00:46:54.985Z,0.00
2023-05-23T00:47:54.907Z,0.00
2023-05-23T00:48:54.812Z,0.00
2023-05-23T00:49:54.892Z,0.00
2023-05-23T00:50:54.781Z,0.00
2023-05-23T00:51:54.800Z,0.00
2023-05-23T00:52:54.756Z,0.00
2023-05-23T00:53:54.817Z,0.00
2023-05-23T00:54:54.687Z,0.00
2023-05-23T00:55:54.745Z,0.00
2023-05-23T00:56:54.817Z,0.00
2023-05-23T00:57:54.636Z,0.00
2023-05-23T00:58:54.642Z,0.00
2023-05-23T00:59:54.583Z,0.00
2023-05-23T01:00:54.657Z,0.00
2023-05-23T01:01:54.592Z,0.00
2023-05-23T01:02:54.687Z,0.00
2023-05-23T01:03:54.572Z,0.00
2023-05-23T01:04:54.630Z,0.00
2023-05-23T01:05:54.472Z,0.00
2023-05-23T01:06:54.503Z,0.00
2023-05-23T01:07:54.420Z,0.00
2023-05-23T01:08:54.383Z,0.00
2023-05-23T01:09:54.411Z,0.00
2023-05-23T01:10:54.347Z,0.00
2023-05-23T01:11:54.426Z,0.00
2023-05-23T01:12:54.413Z,0.00
2023-05-23T01:13:54.336Z,0.00
2023-05-23T01:14:54.256Z,0.00
2023-05-23T01:15:54.389Z,0.00
2023-05-23T01:16:54.267Z,0.00
2023-05-23T01:17:54.300Z,0.00
2023-05-23T01:18:54.191Z,0.00
2023-05-23T01:19:54.155Z,0.00
2023-05-23T01:20:54.150Z,0.00
2023-05-23T01:21:54.201Z,0.00
2023-05-23T01:22:54.104Z,0.00
2023-05-23T01:23:54.099Z,0.00
2023-05-23T01:24:54.048Z,0.00
2023-05-23T01:25:54.027Z,0.00
2023-05-23T01:26:54.010Z,0.00
2023-05-23T01:27:54.026Z,0.00
2023-05-23T01:28:54.056Z,0.00
2023-05-23T01:29:54.045Z,0.00
2023-05-23T01:30:53.921Z,0.00
2023-05-23T01:31:53.921Z,0.00
2023-05-23T01:32:54.061Z,0.00
2023-05-23T01:33:53.867Z,0.00
2023-05-23T01:34:53.887Z,0.00
2023-05-23T01:35:53.817Z,0.00
2023-05-23T01:36:53.916Z,0.00
2023-05-23T01:37:53.784Z,0.00
2023-05-23T01:38:53.804Z,0.00
2023-05-23T01:39:53.971Z,0.00
2023-05-23T01:40:53.817Z,0.00
2023-05-23T01:41:53.699Z,0.00
2023-05-23T01:42:53.685Z,0.00
2023-05-23T01:43:53.647Z,0.00
2023-05-23T01:44:53.736Z,0.00
2023-05-23T01:45:53.638Z,0.00
2023-05-23T01:46:53.659Z,0.00
2023-05-23T01:47:53.596Z,0.00
2023-05-23T01:48:53.558Z,0.00
2023-05-23T01:49:53.553Z,0.00
2023-05-23T01:50:53.590Z,0.00
2023-05-23T01:51:53.494Z,0.00
2023-05-23T01:52:53.508Z,0.00
2023-05-23T01:53:53.440Z,0.00
2023-05-23T01:54:53.422Z,0.00
2023-05-23T01:55:53.433Z,0.00
2023-05-23T01:56:53.377Z,0.00
2023-05-23T01:57:53.438Z,0.00
2023-05-23T01:58:53.336Z,0.00
2023-05-23T01:59:53.346Z,0.00
2023-05-23T02:00:53.416Z,0.00
2023-05-23T02:01:53.368Z,0.00
2023-05-23T02:02:53.392Z,0.00
2023-05-23T02:03:53.295Z,0.00
2023-05-23T02:04:53.204Z,0.00
2023-05-23T02:05:53.198Z,0.00
2023-05-23T02:06:53.168Z,0.00
2023-05-23T02:07:53.197Z,0.00
2023-05-23T02:08:53.122Z,0.00
2023-05-23T02:09:53.214Z,0.00
2023-05-23T02:10:53.094Z,0.00
2023-05-23T02:11:53.086Z,0.00
2023-05-23T02:12:53.150Z,0.00
2023-05-23T02:13:53.030Z,0.00
2023-05-23T02:14:53.050Z,0.00
2023-05-23T02:15:52.979Z,0.00
2023-05-23T02:16:54.108Z,0.00
2023-05-23T02:17:52.990Z,0.00
2023-05-23T02:18:53.137Z,0.00
2023-05-23T02:19:52.902Z,0.00
2023-05-23T02:20:52.897Z,0.00
2023-05-23T02:21:52.847Z,0.00
2023-05-23T02:22:52.897Z,0.00
2023-05-23T02:23:52.808Z,0.00
2023-05-23T02:24:52.809Z,0.00
2023-05-23T02:25:52.765Z,0.00
2023-05-23T02:26:52.835Z,0.00
2023-05-23T02:27:52.734Z,0.00
2023-05-23T02:28:52.706Z,0.00
2023-05-23T02:29:52.677Z,0.00
2023-05-23T02:30:52.777Z,0.00
2023-05-23T02:31:52.648Z,0.00
2023-05-23T02:32:52.784Z,0.00
2023-05-23T02:33:52.593Z,0.00
2023-05-23T02:34:53.737Z,0.00
2023-05-23T02:35:52.553Z,0.00
2023-05-23T02:36:52.590Z,0.00
2023-05-23T02:37:52.528Z,0.00
2023-05-23T02:38:52.503Z,0.00
2023-05-23T02:39:52.469Z,0.00
2023-05-23T02:40:52.447Z,0.00
2023-05-23T02:41:52.529Z,0.00
2023-05-23T02:42:52.425Z,0.00
2023-05-23T02:43:52.438Z,0.00
2023-05-23T02:44:52.367Z,0.00
2023-05-23T02:45:52.363Z,0.00
2023-05-23T02:46:52.316Z,0.00
2023-05-23T02:47:52.508Z,0.00
2023-05-23T02:48:52.366Z,0.00
2023-05-23T02:49:52.280Z,0.00
2023-05-23T02:50:52.230Z,0.00
2023-05-23T02:51:52.206Z,0.00
2023-05-23T02:52:52.200Z,0.00
2023-05-23T02:53:52.202Z,0.00
2023-05-23T02:54:52.140Z,0.00
2023-05-23T02:55:52.224Z,0.00
2023-05-23T02:56:52.101Z,0.00
2023-05-23T02:57:52.073Z,0.00
2023-05-23T02:58:52.134Z,0.00
2023-05-23T02:59:52.034Z,0.00
2023-05-23T03:00:52.051Z,0.00
2023-05-23T03:01:52.041Z,0.00
2023-05-23T03:02:52.124Z,0.00
2023-05-23T03:03:51.986Z,0.00
2023-05-23T03:04:52.086Z,0.00
2023-05-23T03:05:51.928Z,0.00
2023-05-23T03:06:52.011Z,0.00
2023-05-23T03:07:51.899Z,0.00
2023-05-23T03:08:51.915Z,0.00
2023-05-23T03:09:51.859Z,0.00
2023-05-23T03:10:51.933Z,0.00
2023-05-23T03:11:51.818Z,0.00
2023-05-23T03:12:51.840Z,0.00
2023-05-23T03:13:51.776Z,0.00
2023-05-23T03:14:51.778Z,0.00
2023-05-23T03:15:51.784Z,0.00
2023-05-23T03:16:51.780Z,0.00
2023-05-23T03:17:51.738Z,4.00
2023-05-23T03:18:51.697Z,4.00
2023-05-23T03:19:51.650Z,0.00
2023-05-23T03:20:51.730Z,0.00
2023-05-23T03:21:51.703Z,4.00
2023-05-23T03:22:51.594Z,4.00
2023-05-23T03:23:51.639Z,4.00
2023-05-23T03:24:51.562Z,4.00
2023-05-23T03:25:51.531Z,4.00
2023-05-23T03:26:51.491Z,4.00
2023-05-23T03:27:51.537Z,4.00
2023-05-23T03:28:51.456Z,4.00
2023-05-23T03:29:51.456Z,8.00
2023-05-23T03:30:51.401Z,8.00
2023-05-23T03:31:51.501Z,8.00
2023-05-23T03:32:51.401Z,4.00
2023-05-23T03:33:51.382Z,8.00
2023-05-23T03:34:51.322Z,8.00
2023-05-23T03:35:51.407Z,12.00
2023-05-23T03:36:51.380Z,8.00
2023-05-23T03:37:51.263Z,12.00
2023-05-23T03:38:51.230Z,12.00
2023-05-23T03:39:51.321Z,12.00
2023-05-23T03:40:51.189Z,12.00
2023-05-23T03:41:51.261Z,16.00
2023-05-23T03:42:51.153Z,16.00
2023-05-23T03:43:51.129Z,16.00
2023-05-23T03:44:51.104Z,20.00
2023-05-23T03:45:51.195Z,20.00
2023-05-23T03:46:51.072Z,20.00
2023-05-23T03:47:51.105Z,24.00
2023-05-23T03:48:51.017Z,24.00
2023-05-23T03:49:50.994Z,28.00
2023-05-23T03:50:50.972Z,28.00
2023-05-23T03:51:51.004Z,32.00
2023-05-23T03:52:51.033Z,32.00
2023-05-23T03:53:51.011Z,36.00
2023-05-23T03:54:50.886Z,32.00
2023-05-23T03:55:50.868Z,36.00
2023-05-23T03:56:50.930Z,40.00
2023-05-23T03:57:50.832Z,48.00
2023-05-23T03:58:50.845Z,56.00
2023-05-23T03:59:50.773Z,56.00
2023-05-23T04:00:50.766Z,60.00
2023-05-23T04:01:50.732Z,64.00
2023-05-23T04:02:50.908Z,64.00
2023-05-23T04:03:50.735Z,64.00
2023-05-23T04:04:50.681Z,60.00
2023-05-23T04:05:50.649Z,64.00
2023-05-23T04:06:50.624Z,68.00
2023-05-23T04:07:50.613Z,72.00
2023-05-23T04:08:50.711Z,84.00
2023-05-23T04:09:50.571Z,96.00
2023-05-23T04:10:50.644Z,108.00
2023-05-23T04:11:50.524Z,112.00
2023-05-23T04:12:50.503Z,120.00
2023-05-23T04:13:50.574Z,128.00
2023-05-23T04:14:50.461Z,120.00
2023-05-23T04:15:50.503Z,112.00
2023-05-23T04:16:50.409Z,112.00
2023-05-23T04:17:50.506Z,116.00
2023-05-23T04:18:50.416Z,112.00
2023-05-23T04:19:50.382Z,116.00
2023-05-23T04:20:50.327Z,116.00
2023-05-23T04:21:50.289Z,116.00
2023-05-23T04:22:50.270Z,116.00
2023-05-23T04:23:50.232Z,112.00
2023-05-23T04:24:50.298Z,112.00
2023-05-23T04:25:50.213Z,132.00
2023-05-23T04:26:50.174Z,144.00
2023-05-23T04:27:50.244Z,164.00
2023-05-23T04:28:50.109Z,188.00
2023-05-23T04:29:50.097Z,204.00
2023-05-23T04:30:50.112Z,220.00
2023-05-23T04:31:50.240Z,228.00
2023-05-23T04:32:50.111Z,240.00
2023-05-23T04:33:50.065Z,216.00
2023-05-23T04:34:49.987Z,204.00
2023-05-23T04:35:49.964Z,208.00
2023-05-23T04:36:49.987Z,208.00
2023-05-23T04:37:49.927Z,208.00
2023-05-23T04:38:50.028Z,208.00
2023-05-23T04:39:49.876Z,208.00
2023-05-23T04:40:50.004Z,220.00
2023-05-23T04:41:49.830Z,236.00
2023-05-23T04:42:49.926Z,244.00
2023-05-23T04:43:49.787Z,240.00
2023-05-23T04:44:49.849Z,236.00
2023-05-23T04:45:49.742Z,228.00
2023-05-23T04:46:49.776Z,244.00
2023-05-23T04:47:49.727Z,268.00
2023-05-23T04:48:49.774Z,300.00
2023-05-23T04:49:49.659Z,336.00
2023-05-23T04:50:49.680Z,384.00
2023-05-23T04:51:49.607Z,460.00
2023-05-23T04:52:49.605Z,464.00
2023-05-23T04:53:49.591Z,456.00
2023-05-23T04:54:49.612Z,456.00
2023-05-23T04:55:49.546Z,456.00
2023-05-23T04:56:49.612Z,448.00
2023-05-23T04:57:49.516Z,420.00
2023-05-23T04:58:49.474Z,368.00
2023-05-23T04:59:49.540Z,320.00
2023-05-23T05:00:49.495Z,304.00
2023-05-23T05:01:49.453Z,300.00
2023-05-23T05:02:49.431Z,316.00
2023-05-23T05:03:49.409Z,320.00
2023-05-23T05:04:49.352Z,308.00
2023-05-23T05:05:49.385Z,316.00
2023-05-23T05:06:49.282Z,304.00
2023-05-23T05:07:49.290Z,300.00
2023-05-23T05:08:49.240Z,300.00
2023-05-23T05:09:49.225Z,312.00
2023-05-23T05:10:49.195Z,308.00
2023-05-23T05:11:49.225Z,304.00
2023-05-23T05:12:49.261Z,284.00
2023-05-23T05:13:49.238Z,296.00
2023-05-23T05:14:49.115Z,288.00
2023-05-23T05:15:49.102Z,272.00
2023-05-23T05:16:49.185Z,272.00
2023-05-23T05:17:50.063Z,288.00
2023-05-23T05:18:49.116Z,284.00
2023-05-23T05:19:49.003Z,260.00
2023-05-23T05:20:49.085Z,280.00
2023-05-23T05:21:48.971Z,276.00
2023-05-23T05:22:48.987Z,288.00
2023-05-23T05:23:48.915Z,292.00
2023-05-23T05:24:49.004Z,320.00
2023-05-23T05:25:48.869Z,360.00
2023-05-23T05:26:48.929Z,412.00
2023-05-23T05:27:48.842Z,412.00
2023-05-23T05:28:48.921Z,448.00
2023-05-23T05:29:48.796Z,496.00
2023-05-23T05:30:48.884Z,548.00
2023-05-23T05:31:48.739Z,556.00
2023-05-23T05:32:48.746Z,536.00
2023-05-23T05:33:48.696Z,548.00
2023-05-23T05:34:49.621Z,528.00
2023-05-23T05:35:48.649Z,448.00
2023-05-23T05:36:48.681Z,400.00
2023-05-23T05:37:48.633Z,364.00
2023-05-23T05:38:48.596Z,320.00
2023-05-23T05:39:48.566Z,324.00
2023-05-23T05:40:48.606Z,328.00
2023-05-23T05:41:48.540Z,304.00
2023-05-23T05:42:48.640Z,284.00
2023-05-23T05:43:48.476Z,276.00
2023-05-23T05:44:48.554Z,292.00
2023-05-23T05:45:48.548Z,288.00
2023-05-23T05:46:48.533Z,304.00
2023-05-23T05:47:48.484Z,324.00
2023-05-23T05:48:48.385Z,336.00
2023-05-23T05:49:49.392Z,364.00
2023-05-23T05:50:48.342Z,408.00
2023-05-23T05:51:48.381Z,440.00
2023-05-23T05:52:48.300Z,468.00
2023-05-23T05:53:48.289Z,496.00
2023-05-23T05:54:48.277Z,532.00
2023-05-23T05:55:48.231Z,568.00
2023-05-23T05:56:48.232Z,580.00
2023-05-23T05:57:48.219Z,596.00
2023-05-23T05:58:48.185Z,600.00
2023-05-23T05:59:48.244Z,608.00
2023-05-23T06:00:48.208Z,620.00
2023-05-23T06:01:48.092Z,600.00
2023-05-23T06:02:48.126Z,544.00
2023-05-23T06:03:48.387Z,552.00
2023-05-23T06:04:48.055Z,552.00
2023-05-23T06:05:48.102Z,564.00
2023-05-23T06:06:48.178Z,596.00
2023-05-23T06:07:47.976Z,628.00
2023-05-23T06:08:48.020Z,640.00
2023-05-23T06:09:48.007Z,636.00
2023-05-23T06:10:48.066Z,592.00
2023-05-23T06:11:47.922Z,568.00
2023-05-23T06:12:47.968Z,556.00
2023-05-23T06:13:47.841Z,528.00
2023-05-23T06:14:47.933Z,512.00
2023-05-23T06:15:47.858Z,484.00
2023-05-23T06:16:48.242Z,488.00
2023-05-23T06:17:47.787Z,460.00
2023-05-23T06:18:47.733Z,452.00
2023-05-23T06:19:47.702Z,464.00
2023-05-23T06:20:47.830Z,460.00
2023-05-23T06:21:47.661Z,460.00
2023-05-23T06:22:47.750Z,464.00
2023-05-23T06:23:47.689Z,464.00
2023-05-23T06:24:47.598Z,468.00
2023-05-23T06:25:47.578Z,460.00
2023-05-23T06:26:47.666Z,452.00
2023-05-23T06:27:47.540Z,444.00
2023-05-23T06:28:47.590Z,436.00
2023-05-23T06:29:47.488Z,424.00
2023-05-23T06:30:47.463Z,440.00
2023-05-23T06:31:47.616Z,436.00
2023-05-23T06:32:47.487Z,432.00
2023-05-23T06:33:47.529Z,448.00
2023-05-23T06:34:47.371Z,456.00
2023-05-23T06:35:47.370Z,440.00
2023-05-23T06:36:47.350Z,444.00
2023-05-23T06:37:47.439Z,440.00
2023-05-23T06:38:47.298Z,464.00
2023-05-23T06:39:47.366Z,460.00
2023-05-23T06:40:47.251Z,448.00
2023-05-23T06:41:47.258Z,464.00
2023-05-23T06:42:47.219Z,480.00
2023-05-23T06:43:47.280Z,472.00
2023-05-23T06:44:47.229Z,456.00
2023-05-23T06:45:47.385Z,456.00
2023-05-23T06:46:47.131Z,420.00
2023-05-23T06:47:47.143Z,432.00
2023-05-23T06:48:47.221Z,420.00
2023-05-23T06:49:47.072Z,452.00
2023-05-23T06:50:47.139Z,460.00
2023-05-23T06:51:47.088Z,488.00
2023-05-23T06:52:47.182Z,536.00
2023-05-23T06:53:46.975Z,512.00
2023-05-23T06:54:47.061Z,456.00
2023-05-23T06:55:46.927Z,440.00
2023-05-23T06:56:47.060Z,424.00
2023-05-23T06:57:46.891Z,388.00
2023-05-23T06:58:47.235Z,396.00
2023-05-23T06:59:46.844Z,332.00
2023-05-23T07:00:46.969Z,312.00
2023-05-23T07:01:47.022Z,320.00
2023-05-23T07:02:46.944Z,304.00
2023-05-23T07:03:46.761Z,320.00
2023-05-23T07:04:46.881Z,388.00
2023-05-23T07:05:46.779Z,392.00
2023-05-23T07:06:46.847Z,400.00
2023-05-23T07:07:46.685Z,484.00
2023-05-23T07:08:46.693Z,504.00
2023-05-23T07:09:46.646Z,560.00
2023-05-23T07:10:46.618Z,588.00
2023-05-23T07:11:46.675Z,604.00
2023-05-23T07:12:46.589Z,576.00
2023-05-23T07:13:46.670Z,536.00
2023-05-23T07:14:46.528Z,576.00
2023-05-23T07:15:46.600Z,580.00
2023-05-23T07:16:46.535Z,576.00
2023-05-23T07:17:46.653Z,600.00
2023-05-23T07:18:46.473Z,620.00
2023-05-23T07:19:46.527Z,572.00
2023-05-23T07:20:48.112Z,524.00
2023-05-23T07:21:46.380Z,524.00
2023-05-23T07:22:46.364Z,540.00
2023-05-23T07:23:46.439Z,564.00
2023-05-23T07:24:46.316Z,560.00
2023-05-23T07:26:00.588Z,584.00
2023-05-23T07:26:46.270Z,608.00
2023-05-23T07:27:46.264Z,648.00
2023-05-23T07:28:46.217Z,692.00
2023-05-23T07:29:46.291Z,696.00
2023-05-23T07:30:46.243Z,748.00
2023-05-23T07:31:46.367Z,752.00
2023-05-23T07:32:46.184Z,732.00
2023-05-23T07:33:46.122Z,748.00
2023-05-23T07:34:46.226Z,800.00
2023-05-23T07:35:46.065Z,780.00
2023-05-23T07:36:46.135Z,784.00
2023-05-23T07:37:47.071Z,704.00
2023-05-23T07:38:46.009Z,740.00
2023-05-23T07:39:45.987Z,660.00
2023-05-23T07:40:55.378Z,516.00
2023-05-23T07:41:45.949Z,508.00
2023-05-23T07:42:46.088Z,456.00
2023-05-23T07:43:45.894Z,396.00
2023-05-23T07:44:45.878Z,416.00
2023-05-23T07:45:45.850Z,460.00
2023-05-23T07:46:45.898Z,548.00
2023-05-23T07:47:45.853Z,656.00
2023-05-23T07:48:45.912Z,676.00
2023-05-23T07:49:45.759Z,724.00
2023-05-23T07:50:45.742Z,716.00
2023-05-23T07:51:45.817Z,704.00
2023-05-23T07:52:45.709Z,632.00
2023-05-23T07:53:45.728Z,588.00
2023-05-23T07:54:45.648Z,524.00
2023-05-23T07:55:45.757Z,496.00
2023-05-23T07:56:45.620Z,484.00
2023-05-23T07:57:45.663Z,472.00
2023-05-23T07:58:45.571Z,440.00
2023-05-23T07:59:45.687Z,400.00
2023-05-23T08:00:45.600Z,392.00
2023-05-23T08:01:45.568Z,336.00
2023-05-23T08:02:45.513Z,332.00
2023-05-23T08:03:45.494Z,332.00
2023-05-23T08:04:45.466Z,356.00
2023-05-23T08:05:45.515Z,376.00
2023-05-23T08:06:56.323Z,408.00
2023-05-23T08:07:45.402Z,456.00
2023-05-23T08:08:45.433Z,472.00
2023-05-23T08:09:45.338Z,480.00
2023-05-23T08:10:45.342Z,480.00
2023-05-23T08:11:45.287Z,452.00
2023-05-23T08:12:45.365Z,424.00
2023-05-23T08:13:45.241Z,408.00
2023-05-23T08:14:51.562Z,420.00
2023-05-23T08:15:45.193Z,456.00
2023-05-23T08:16:45.330Z,448.00
2023-05-23T08:17:45.200Z,456.00
2023-05-23T08:18:45.143Z,456.00
2023-05-23T08:19:45.130Z,476.00
2023-05-23T08:20:45.180Z,500.00
2023-05-23T08:21:45.072Z,560.00
2023-05-23T08:22:45.088Z,616.00
2023-05-23T08:23:45.026Z,656.00
2023-05-23T08:24:45.010Z,756.00
2023-05-23T08:25:44.984Z,864.00
2023-05-23T08:26:45.020Z,996.00
2023-05-23T08:27:44.976Z,1156.00
2023-05-23T08:28:45.037Z,1364.00
2023-05-23T08:29:44.950Z,1628.00
2023-05-23T08:30:44.872Z,1908.00
2023-05-23T08:31:44.970Z,2056.00
2023-05-23T08:32:44.869Z,2036.00
2023-05-23T08:33:44.867Z,2312.00
2023-05-23T08:34:44.781Z,2620.00
2023-05-23T08:35:44.783Z,2556.00
2023-05-23T08:36:44.739Z,2572.00
2023-05-23T08:37:44.788Z,2376.00
2023-05-23T08:38:44.703Z,2028.00
2023-05-23T08:39:44.696Z,1852.00
2023-05-23T08:40:44.689Z,1784.00
2023-05-23T08:41:44.629Z,1788.00
2023-05-23T08:42:44.640Z,1636.00
2023-05-23T08:43:44.623Z,1372.00
2023-05-23T08:44:44.580Z,1104.00
2023-05-23T08:45:44.596Z,860.00
2023-05-23T08:46:44.731Z,684.00
2023-05-23T08:47:44.539Z,644.00
2023-05-23T08:48:44.494Z,584.00
2023-05-23T08:49:44.498Z,548.00
2023-05-23T08:50:44.436Z,528.00
2023-05-23T08:51:44.528Z,536.00
2023-05-23T08:52:44.408Z,544.00
2023-05-23T08:53:44.426Z,552.00
2023-05-23T08:54:44.352Z,596.00
2023-05-23T08:55:44.438Z,672.00
2023-05-23T08:56:44.307Z,796.00
2023-05-23T08:57:44.357Z,848.00
2023-05-23T08:58:44.367Z,940.00
2023-05-23T08:59:44.243Z,1084.00
2023-05-23T09:00:44.541Z,1228.00
2023-05-23T09:01:44.250Z,1380.00
2023-05-23T09:02:44.329Z,1308.00
2023-05-23T09:03:44.771Z,1188.00
2023-05-23T09:04:44.137Z,1060.00
2023-05-23T09:05:44.151Z,1016.00
2023-05-23T09:06:44.137Z,1032.00
2023-05-23T09:07:44.084Z,996.00
2023-05-23T09:08:44.124Z,952.00
2023-05-23T09:09:44.108Z,896.00
2023-05-23T09:10:44.017Z,844.00
2023-05-23T09:11:44.046Z,828.00
2023-05-23T09:12:43.979Z,828.00
2023-05-23T09:13:43.955Z,840.00
2023-05-23T09:14:43.937Z,828.00
2023-05-23T09:15:43.907Z,848.00
2023-05-23T09:16:43.961Z,848.00
2023-05-23T09:17:43.934Z,868.00
2023-05-23T09:18:43.866Z,884.00
2023-05-23T09:19:43.891Z,888.00
2023-05-23T09:20:43.786Z,892.00
2023-05-23T09:21:43.765Z,912.00
2023-05-23T09:22:43.831Z,940.00
2023-05-23T09:23:43.720Z,956.00
2023-05-23T09:24:43.739Z,1000.00
2023-05-23T09:25:43.694Z,1052.00
2023-05-23T09:26:43.756Z,1084.00
2023-05-23T09:27:46.682Z,1116.00
2023-05-23T09:28:43.656Z,1120.00
2023-05-23T09:29:43.616Z,1120.00
2023-05-23T09:30:43.689Z,1148.00
2023-05-23T09:31:43.566Z,1176.00
2023-05-23T09:32:43.578Z,1212.00
2023-05-23T09:33:43.519Z,1264.00
2023-05-23T09:34:43.562Z,1352.00
2023-05-23T09:35:43.460Z,1428.00
2023-05-23T09:36:43.485Z,1604.00
2023-05-23T09:37:43.437Z,1856.00
2023-05-23T09:38:43.396Z,2064.00
2023-05-23T09:39:43.412Z,2208.00
2023-05-23T09:40:43.428Z,2408.00
2023-05-23T09:41:43.330Z,2572.00
2023-05-23T09:42:43.413Z,2752.00
2023-05-23T09:43:43.300Z,2920.00
2023-05-23T09:44:43.268Z,3064.00
2023-05-23T09:45:43.346Z,3176.00
2023-05-23T09:46:43.252Z,3312.00
2023-05-23T09:47:43.291Z,3372.00
2023-05-23T09:48:43.202Z,3384.00
2023-05-23T09:49:43.287Z,3520.00
2023-05-23T09:50:43.229Z,3684.00
2023-05-23T09:51:43.176Z,3716.00
2023-05-23T09:52:43.103Z,3532.00
2023-05-23T09:53:43.090Z,3440.00
2023-05-23T09:54:43.050Z,3444.00
2023-05-23T09:55:43.028Z,3436.00
2023-05-23T09:56:43.016Z,3560.00
2023-05-23T09:57:43.015Z,3808.00
2023-05-23T09:58:42.960Z,4752.00
2023-05-23T09:59:43.043Z,4820.00
2023-05-23T10:00:43.148Z,5312.00
2023-05-23T10:01:42.943Z,5224.00
2023-05-23T10:02:42.981Z,5016.00
2023-05-23T10:03:42.888Z,5148.00
2023-05-23T10:04:42.939Z,5236.00
2023-05-23T10:05:42.821Z,5372.00
2023-05-23T10:06:42.883Z,4912.00
2023-05-23T10:07:42.790Z,5396.00
2023-05-23T10:08:42.825Z,5420.00
2023-05-23T10:09:42.731Z,5368.00
2023-05-23T10:10:42.908Z,5060.00
2023-05-23T10:11:42.692Z,5120.00
2023-05-23T10:12:42.674Z,5204.00
2023-05-23T10:13:42.667Z,5380.00
2023-05-23T10:14:42.735Z,5448.00
2023-05-23T10:15:42.635Z,5688.00
2023-05-23T10:16:42.822Z,5628.00
2023-05-23T10:17:42.606Z,5164.00
2023-05-23T10:18:42.554Z,5228.00
2023-05-23T10:19:42.603Z,5124.00
2023-05-23T10:20:42.801Z,5128.00
2023-05-23T10:21:44.723Z,5188.00
2023-05-23T10:22:42.495Z,4996.00
2023-05-23T10:23:42.533Z,4888.00
2023-05-23T10:24:42.474Z,4716.00
2023-05-23T10:25:42.427Z,4528.00
2023-05-23T10:26:42.423Z,5320.00
2023-05-23T10:27:42.438Z,4412.00
2023-05-23T10:28:42.365Z,3692.00
2023-05-23T10:29:42.365Z,3316.00
2023-05-23T10:30:42.583Z,3280.00
2023-05-23T10:31:42.568Z,3124.00
2023-05-23T10:32:42.312Z,2884.00
2023-05-23T10:33:42.277Z,2732.00
2023-05-23T10:34:42.262Z,2584.00
2023-05-23T10:35:42.384Z,2500.00
2023-05-23T10:36:42.201Z,2556.00
2023-05-23T10:37:42.308Z,2580.00
2023-05-23T10:38:42.162Z,2492.00
2023-05-23T10:39:42.219Z,2468.00
2023-05-23T10:40:42.319Z,2588.00
2023-05-23T10:41:42.110Z,2704.00
2023-05-23T10:42:42.114Z,2748.00
2023-05-23T10:43:42.146Z,2724.00
2023-05-23T10:44:42.049Z,2764.00
2023-05-23T10:45:42.092Z,2868.00
2023-05-23T10:46:42.062Z,3004.00
2023-05-23T10:47:42.017Z,3132.00
2023-05-23T10:48:42.079Z,3208.00
2023-05-23T10:49:41.988Z,3332.00
2023-05-23T10:50:42.528Z,3500.00
2023-05-23T10:51:41.910Z,3864.00
2023-05-23T10:52:41.999Z,3996.00
2023-05-23T10:53:41.883Z,4084.00
2023-05-23T10:54:41.944Z,4004.00
2023-05-23T10:55:41.850Z,3736.00
2023-05-23T10:56:41.927Z,3244.00
2023-05-23T10:57:41.818Z,2812.00
2023-05-23T10:58:41.784Z,2412.00
2023-05-23T10:59:41.763Z,2108.00
2023-05-23T11:00:42.026Z,1944.00
2023-05-23T11:01:41.821Z,1848.00
2023-05-23T11:02:41.785Z,1748.00
2023-05-23T11:03:41.886Z,1684.00
2023-05-23T11:04:41.677Z,1664.00
2023-05-23T11:05:41.689Z,1712.00
2023-05-23T11:06:41.632Z,1816.00
2023-05-23T11:07:41.707Z,1888.00
2023-05-23T11:08:47.550Z,1956.00
2023-05-23T11:09:41.574Z,2408.00
2023-05-23T11:10:41.822Z,2292.00
2023-05-23T11:11:41.648Z,2648.00
2023-05-23T11:12:41.537Z,2692.00
2023-05-23T11:13:41.554Z,3152.00
2023-05-23T11:14:41.477Z,4324.00
2023-05-23T11:15:41.569Z,4680.00
2023-05-23T11:16:41.632Z,4044.00
2023-05-23T11:17:41.515Z,4068.00
2023-05-23T11:18:41.559Z,5212.00
2023-05-23T11:19:41.559Z,5616.00
2023-05-23T11:20:41.731Z,5272.00
2023-05-23T11:21:41.414Z,5844.00
2023-05-23T11:22:41.411Z,5052.00
2023-05-23T11:23:41.406Z,5256.00
2023-05-23T11:24:41.313Z,5132.00
2023-05-23T11:25:41.291Z,5008.00
2023-05-23T11:26:41.256Z,4856.00
2023-05-23T11:27:41.360Z,4624.00
2023-05-23T11:28:41.363Z,4284.00
2023-05-23T11:29:41.246Z,3980.00
2023-05-23T11:30:41.413Z,3716.00
2023-05-23T11:31:41.180Z,3568.00
2023-05-23T11:32:41.235Z,3524.00
2023-05-23T11:33:41.180Z,3460.00
2023-05-23T11:34:41.107Z,3228.00
2023-05-23T11:35:41.197Z,3032.00
2023-05-23T11:36:41.084Z,2892.00
2023-05-23T11:37:41.075Z,2800.00
2023-05-23T11:38:41.037Z,2684.00
2023-05-23T11:39:41.120Z,2588.00
2023-05-23T11:40:41.415Z,2636.00
2023-05-23T11:41:41.030Z,2744.00
2023-05-23T11:42:40.976Z,2876.00
2023-05-23T11:43:40.948Z,2920.00
2023-05-23T11:44:40.947Z,2984.00
2023-05-23T11:45:40.985Z,3232.00
2023-05-23T11:46:40.961Z,4032.00
2023-05-23T11:47:40.938Z,3188.00
2023-05-23T11:48:40.864Z,3116.00
2023-05-23T11:49:40.833Z,4228.00
2023-05-23T11:50:41.509Z,3996.00
2023-05-23T11:51:40.796Z,3944.00
2023-05-23T11:52:40.812Z,4248.00
2023-05-23T11:53:40.757Z,4472.00
2023-05-23T11:54:40.784Z,4556.00
2023-05-23T11:55:40.742Z,4824.00
2023-05-23T11:56:40.726Z,4084.00
2023-05-23T11:57:40.698Z,4084.00
2023-05-23T11:58:40.747Z,5640.00
2023-05-23T11:59:40.655Z,4396.00
2023-05-23T12:00:40.807Z,5828.00
2023-05-23T12:01:40.662Z,5988.00
2023-05-23T12:02:40.699Z,6100.00
2023-05-23T12:03:40.794Z,6136.00
2023-05-23T12:04:40.579Z,6052.00
2023-05-23T12:05:40.585Z,5888.00
2023-05-23T12:06:40.590Z,4448.00
2023-05-23T12:07:40.551Z,4180.00
2023-05-23T12:08:40.503Z,4176.00
2023-05-23T12:09:40.464Z,5396.00
2023-05-23T12:10:40.750Z,4104.00
2023-05-23T12:11:40.434Z,4024.00
2023-05-23T12:12:40.424Z,3836.00
2023-05-23T12:13:40.422Z,3696.00
2023-05-23T12:14:40.441Z,3704.00
2023-05-23T12:15:40.472Z,3736.00
2023-05-23T12:16:40.407Z,3780.00
2023-05-23T12:17:40.390Z,3740.00
2023-05-23T12:18:40.324Z,3784.00
2023-05-23T12:19:40.431Z,3832.00
2023-05-23T12:20:40.585Z,5020.00
2023-05-23T12:21:40.290Z,4720.00
2023-05-23T12:22:40.251Z,3424.00
2023-05-23T12:23:40.239Z,3004.00
2023-05-23T12:24:40.200Z,3504.00
2023-05-23T12:25:40.333Z,3912.00
2023-05-23T12:26:40.166Z,3832.00
2023-05-23T12:27:40.231Z,4544.00
2023-05-23T12:28:40.143Z,4492.00
2023-05-23T12:29:40.115Z,5004.00
2023-05-23T12:30:40.188Z,5692.00
2023-05-23T12:31:40.200Z,4400.00
2023-05-23T12:32:40.126Z,4360.00
2023-05-23T12:33:40.072Z,5364.00
2023-05-23T12:34:40.038Z,5800.00
2023-05-23T12:35:40.167Z,5924.00
2023-05-23T12:36:48.480Z,5912.00